sensor_id;sensor_type;location;lat;lon;timestamp;temperature;humidity
5086;DHT22;4715;51.660;7.082;2022-09-17T00:00:02;11.70;99.90
5086;DHT22;4715;51.660;7.082;2022-09-17T00:02:25;11.70;99.90
5086;DHT22;4715;51.660;7.082;2022-09-17T00:04:47;11.70;99.90
5086;DHT22;4715;51.660;7.082;2022-09-17T00:07:09;11.60;99.90
5086;DHT22;4715;51.660;7.082;2022-09-17T00:09:31;11.60;99.90
5086;DHT22;4715;51.660;7.082;2022-09-17T00:11:53;11.60;99.90
5086;DHT22;4715;51.660;7.082;2022-09-17T00:14:16;11.50;99.90
5086;DHT22;4715;51.660;7.082;2022-09-17T00:16:40;11.50;99.90
5086;DHT22;4715;51.660;7.082;2022-09-17T00:19:03;11.50;99.90
5086;DHT22;4715;51.660;7.082;2022-09-17T00:21:26;11.40;99.90
5086;DHT22;4715;51.660;7.082;2022-09-17T00:23:52;11.40;99.90
5086;DHT22;4715;51.660;7.082;2022-09-17T00:26:14;11.40;99.90
5086;DHT22;4715;51.660;7.082;2022-09-17T00:28:36;11.30;99.90
5086;DHT22;4715;51.660;7.082;2022-09-17T00:30:59;11.30;99.90
5086;DHT22;4715;51.660;7.082;2022-09-17T00:33:21;11.30;99.90
5086;DHT22;4715;51.660;7.082;2022-09-17T00:35:43;11.30;99.90
5086;DHT22;4715;51.660;7.082;2022-09-17T00:38:06;11.30;99.90
5086;DHT22;4715;51.660;7.082;2022-09-17T00:40:29;11.30;99.90
5086;DHT22;4715;51.660;7.082;2022-09-17T00:42:51;11.30;99.90
5086;DHT22;4715;51.660;7.082;2022-09-17T00:45:13;11.30;99.90
5086;DHT22;4715;51.660;7.082;2022-09-17T00:47:38;11.30;99.90
5086;DHT22;4715;51.660;7.082;2022-09-17T00:50:05;11.30;99.90
5086;DHT22;4715;51.660;7.082;2022-09-17T00:52:32;11.30;99.90
5086;DHT22;4715;51.660;7.082;2022-09-17T00:54:59;11.20;99.90
5086;DHT22;4715;51.660;7.082;2022-09-17T00:57:22;11.20;99.90
5086;DHT22;4715;51.660;7.082;2022-09-17T00:59:44;11.20;99.90
5086;DHT22;4715;51.660;7.082;2022-09-17T01:02:06;11.20;99.90
5086;DHT22;4715;51.660;7.082;2022-09-17T01:04:31;11.10;99.90
5086;DHT22;4715;51.660;7.082;2022-09-17T01:06:58;11.20;99.90
5086;DHT22;4715;51.660;7.082;2022-09-17T01:09:26;11.10;99.90
5086;DHT22;4715;51.660;7.082;2022-09-17T01:12:03;11.10;99.90
5086;DHT22;4715;51.660;7.082;2022-09-17T01:14:43;11.10;99.90
5086;DHT22;4715;51.660;7.082;2022-09-17T01:17:14;11.10;99.90
5086;DHT22;4715;51.660;7.082;2022-09-17T01:20:06;11.00;99.90
5086;DHT22;4715;51.660;7.082;2022-09-17T01:22:34;11.00;99.90
5086;DHT22;4715;51.660;7.082;2022-09-17T01:25:21;10.90;99.90
5086;DHT22;4715;51.660;7.082;2022-09-17T01:33:41;10.90;99.90
5086;DHT22;4715;51.660;7.082;2022-09-17T01:36:16;10.90;99.90
5086;DHT22;4715;51.660;7.082;2022-09-17T01:38:44;10.90;99.90
5086;DHT22;4715;51.660;7.082;2022-09-17T01:41:17;10.90;99.90
5086;DHT22;4715;51.660;7.082;2022-09-17T01:43:44;10.90;99.90
5086;DHT22;4715;51.660;7.082;2022-09-17T01:46:11;10.90;99.90
5086;DHT22;4715;51.660;7.082;2022-09-17T01:48:38;10.90;99.90
5086;DHT22;4715;51.660;7.082;2022-09-17T01:51:06;10.90;99.90
5086;DHT22;4715;51.660;7.082;2022-09-17T01:53:34;10.90;99.90
5086;DHT22;4715;51.660;7.082;2022-09-17T01:55:59;11.00;99.90
5086;DHT22;4715;51.660;7.082;2022-09-17T01:58:25;11.00;99.90
5086;DHT22;4715;51.660;7.082;2022-09-17T02:00:52;11.00;99.90
5086;DHT22;4715;51.660;7.082;2022-09-17T02:03:19;11.00;99.90
5086;DHT22;4715;51.660;7.082;2022-09-17T02:05:45;11.00;99.90
5086;DHT22;4715;51.660;7.082;2022-09-17T02:08:13;11.10;99.90
5086;DHT22;4715;51.660;7.082;2022-09-17T02:10:39;11.10;99.90
5086;DHT22;4715;51.660;7.082;2022-09-17T02:13:07;11.10;99.90
5086;DHT22;4715;51.660;7.082;2022-09-17T02:15:34;11.10;99.90
5086;DHT22;4715;51.660;7.082;2022-09-17T02:18:02;11.10;99.90
5086;DHT22;4715;51.660;7.082;2022-09-17T02:20:34;11.10;99.90
5086;DHT22;4715;51.660;7.082;2022-09-17T02:23:07;11.20;99.90
5086;DHT22;4715;51.660;7.082;2022-09-17T02:25:37;11.20;99.90
5086;DHT22;4715;51.660;7.082;2022-09-17T02:28:02;11.20;99.90
5086;DHT22;4715;51.660;7.082;2022-09-17T02:30:25;11.20;99.90
5086;DHT22;4715;51.660;7.082;2022-09-17T02:32:48;11.20;99.90
5086;DHT22;4715;51.660;7.082;2022-09-17T02:35:11;11.30;99.90
5086;DHT22;4715;51.660;7.082;2022-09-17T02:37:34;11.30;99.90
5086;DHT22;4715;51.660;7.082;2022-09-17T02:39:56;11.30;99.90
5086;DHT22;4715;51.660;7.082;2022-09-17T02:42:23;11.30;99.90
5086;DHT22;4715;51.660;7.082;2022-09-17T02:44:56;11.30;99.90
5086;DHT22;4715;51.660;7.082;2022-09-17T02:50:17;11.30;99.90
5086;DHT22;4715;51.660;7.082;2022-09-17T02:52:53;11.30;99.90
5086;DHT22;4715;51.660;7.082;2022-09-17T02:55:19;11.30;99.90
5086;DHT22;4715;51.660;7.082;2022-09-17T02:57:50;11.30;99.90
5086;DHT22;4715;51.660;7.082;2022-09-17T03:00:16;11.30;99.90
5086;DHT22;4715;51.660;7.082;2022-09-17T03:02:41;11.20;99.90
5086;DHT22;4715;51.660;7.082;2022-09-17T03:05:06;11.20;99.90
5086;DHT22;4715;51.660;7.082;2022-09-17T03:07:29;11.20;99.90
5086;DHT22;4715;51.660;7.082;2022-09-17T03:09:52;11.10;99.90
5086;DHT22;4715;51.660;7.082;2022-09-17T03:12:14;11.20;99.90
5086;DHT22;4715;51.660;7.082;2022-09-17T03:14:37;11.20;99.90
5086;DHT22;4715;51.660;7.082;2022-09-17T03:16:59;11.20;99.90
5086;DHT22;4715;51.660;7.082;2022-09-17T03:19:21;11.10;99.90
5086;DHT22;4715;51.660;7.082;2022-09-17T03:21:43;11.20;99.90
5086;DHT22;4715;51.660;7.082;2022-09-17T03:24:06;11.20;99.90
5086;DHT22;4715;51.660;7.082;2022-09-17T03:26:28;11.10;99.90
5086;DHT22;4715;51.660;7.082;2022-09-17T03:28:50;11.10;99.90
5086;DHT22;4715;51.660;7.082;2022-09-17T03:31:13;11.20;99.90
5086;DHT22;4715;51.660;7.082;2022-09-17T03:33:35;11.10;99.90
5086;DHT22;4715;51.660;7.082;2022-09-17T03:35:57;11.10;99.90
5086;DHT22;4715;51.660;7.082;2022-09-17T03:38:19;11.10;99.90
5086;DHT22;4715;51.660;7.082;2022-09-17T03:40:41;11.20;99.90
5086;DHT22;4715;51.660;7.082;2022-09-17T03:43:03;11.10;99.90
5086;DHT22;4715;51.660;7.082;2022-09-17T03:45:25;11.10;99.90
5086;DHT22;4715;51.660;7.082;2022-09-17T03:47:48;11.10;99.90
5086;DHT22;4715;51.660;7.082;2022-09-17T03:50:11;11.10;99.90
5086;DHT22;4715;51.660;7.082;2022-09-17T03:52:33;11.10;99.90
5086;DHT22;4715;51.660;7.082;2022-09-17T03:54:55;11.10;99.90
5086;DHT22;4715;51.660;7.082;2022-09-17T03:57:17;11.10;99.90
5086;DHT22;4715;51.660;7.082;2022-09-17T03:59:39;11.10;99.90
5086;DHT22;4715;51.660;7.082;2022-09-17T04:02:02;11.10;99.90
5086;DHT22;4715;51.660;7.082;2022-09-17T04:04:25;11.00;99.90
5086;DHT22;4715;51.660;7.082;2022-09-17T04:06:47;11.00;99.90
5086;DHT22;4715;51.660;7.082;2022-09-17T04:09:08;11.00;99.90
5086;DHT22;4715;51.660;7.082;2022-09-17T04:11:30;11.00;99.90
5086;DHT22;4715;51.660;7.082;2022-09-17T04:13:52;11.00;99.90
5086;DHT22;4715;51.660;7.082;2022-09-17T04:16:14;11.00;99.90
5086;DHT22;4715;51.660;7.082;2022-09-17T04:18:36;11.00;99.90
5086;DHT22;4715;51.660;7.082;2022-09-17T04:20:59;11.00;99.90
5086;DHT22;4715;51.660;7.082;2022-09-17T04:23:21;11.00;99.90
5086;DHT22;4715;51.660;7.082;2022-09-17T04:25:43;11.00;99.90
5086;DHT22;4715;51.660;7.082;2022-09-17T04:28:06;11.00;99.90
5086;DHT22;4715;51.660;7.082;2022-09-17T04:30:28;11.00;99.90
5086;DHT22;4715;51.660;7.082;2022-09-17T04:32:50;11.00;99.90
5086;DHT22;4715;51.660;7.082;2022-09-17T04:35:14;11.10;99.90
5086;DHT22;4715;51.660;7.082;2022-09-17T04:37:38;11.10;99.90
5086;DHT22;4715;51.660;7.082;2022-09-17T04:40:00;11.10;99.90
5086;DHT22;4715;51.660;7.082;2022-09-17T04:42:22;11.10;99.90
5086;DHT22;4715;51.660;7.082;2022-09-17T04:44:44;11.10;99.90
5086;DHT22;4715;51.660;7.082;2022-09-17T04:47:06;11.10;99.90
5086;DHT22;4715;51.660;7.082;2022-09-17T04:49:28;11.10;99.90
5086;DHT22;4715;51.660;7.082;2022-09-17T04:51:50;11.10;99.90
5086;DHT22;4715;51.660;7.082;2022-09-17T04:54:13;11.10;99.90
5086;DHT22;4715;51.660;7.082;2022-09-17T04:56:37;11.10;99.90
5086;DHT22;4715;51.660;7.082;2022-09-17T04:58:58;11.10;99.90
5086;DHT22;4715;51.660;7.082;2022-09-17T05:01:20;11.10;99.90
5086;DHT22;4715;51.660;7.082;2022-09-17T05:03:43;11.20;99.90
5086;DHT22;4715;51.660;7.082;2022-09-17T05:06:05;11.20;99.90
5086;DHT22;4715;51.660;7.082;2022-09-17T05:08:27;11.20;99.90
5086;DHT22;4715;51.660;7.082;2022-09-17T05:10:50;11.20;99.90
5086;DHT22;4715;51.660;7.082;2022-09-17T05:13:12;11.10;99.90
5086;DHT22;4715;51.660;7.082;2022-09-17T05:15:34;11.10;99.90
5086;DHT22;4715;51.660;7.082;2022-09-17T05:17:56;11.10;99.90
5086;DHT22;4715;51.660;7.082;2022-09-17T05:20:19;11.10;99.90
5086;DHT22;4715;51.660;7.082;2022-09-17T05:22:42;11.10;99.90
5086;DHT22;4715;51.660;7.082;2022-09-17T05:25:05;11.10;99.90
5086;DHT22;4715;51.660;7.082;2022-09-17T05:27:28;11.10;99.90
5086;DHT22;4715;51.660;7.082;2022-09-17T05:29:50;11.10;99.90
5086;DHT22;4715;51.660;7.082;2022-09-17T05:32:12;11.20;99.90
5086;DHT22;4715;51.660;7.082;2022-09-17T05:34:34;11.20;99.90
5086;DHT22;4715;51.660;7.082;2022-09-17T05:36:56;11.20;99.90
5086;DHT22;4715;51.660;7.082;2022-09-17T05:39:18;11.20;99.90
5086;DHT22;4715;51.660;7.082;2022-09-17T05:41:42;11.20;99.90
5086;DHT22;4715;51.660;7.082;2022-09-17T05:44:05;11.20;99.90
5086;DHT22;4715;51.660;7.082;2022-09-17T05:46:27;11.20;99.90
5086;DHT22;4715;51.660;7.082;2022-09-17T05:48:49;11.20;99.90
5086;DHT22;4715;51.660;7.082;2022-09-17T05:51:11;11.30;99.90
5086;DHT22;4715;51.660;7.082;2022-09-17T05:53:35;11.30;99.90
5086;DHT22;4715;51.660;7.082;2022-09-17T05:55:57;11.30;99.90
5086;DHT22;4715;51.660;7.082;2022-09-17T05:58:21;11.30;99.90
5086;DHT22;4715;51.660;7.082;2022-09-17T06:00:45;11.40;99.90
5086;DHT22;4715;51.660;7.082;2022-09-17T06:03:10;11.40;99.90
5086;DHT22;4715;51.660;7.082;2022-09-17T06:05:32;11.40;99.90
5086;DHT22;4715;51.660;7.082;2022-09-17T06:07:54;11.40;99.90
5086;DHT22;4715;51.660;7.082;2022-09-17T06:10:16;11.40;99.90
5086;DHT22;4715;51.660;7.082;2022-09-17T06:12:39;11.40;99.90
5086;DHT22;4715;51.660;7.082;2022-09-17T06:15:01;11.40;99.90
5086;DHT22;4715;51.660;7.082;2022-09-17T06:17:27;11.40;99.90
5086;DHT22;4715;51.660;7.082;2022-09-17T06:19:49;11.40;99.90
5086;DHT22;4715;51.660;7.082;2022-09-17T06:22:11;11.40;99.90
5086;DHT22;4715;51.660;7.082;2022-09-17T06:24:33;11.40;99.90
5086;DHT22;4715;51.660;7.082;2022-09-17T06:26:55;11.40;99.90
5086;DHT22;4715;51.660;7.082;2022-09-17T06:29:17;11.40;99.90
5086;DHT22;4715;51.660;7.082;2022-09-17T06:31:39;11.40;99.90
5086;DHT22;4715;51.660;7.082;2022-09-17T06:34:05;11.40;99.90
5086;DHT22;4715;51.660;7.082;2022-09-17T06:36:27;11.40;99.90
5086;DHT22;4715;51.660;7.082;2022-09-17T06:38:50;11.30;99.90
5086;DHT22;4715;51.660;7.082;2022-09-17T06:41:12;11.40;99.90
5086;DHT22;4715;51.660;7.082;2022-09-17T06:43:36;11.40;99.90
5086;DHT22;4715;51.660;7.082;2022-09-17T06:45:59;11.40;99.90
5086;DHT22;4715;51.660;7.082;2022-09-17T06:48:23;11.40;99.90
5086;DHT22;4715;51.660;7.082;2022-09-17T06:50:47;11.40;99.90
5086;DHT22;4715;51.660;7.082;2022-09-17T06:53:10;11.40;99.90
5086;DHT22;4715;51.660;7.082;2022-09-17T06:55:33;11.50;99.90
5086;DHT22;4715;51.660;7.082;2022-09-17T06:57:58;11.40;99.90
5086;DHT22;4715;51.660;7.082;2022-09-17T07:00:20;11.50;99.90
5086;DHT22;4715;51.660;7.082;2022-09-17T07:02:42;11.40;99.90
5086;DHT22;4715;51.660;7.082;2022-09-17T07:05:05;11.50;99.90
5086;DHT22;4715;51.660;7.082;2022-09-17T07:07:28;11.50;99.90
5086;DHT22;4715;51.660;7.082;2022-09-17T07:09:50;11.50;99.90
5086;DHT22;4715;51.660;7.082;2022-09-17T07:12:13;11.50;99.90
5086;DHT22;4715;51.660;7.082;2022-09-17T07:14:35;11.50;99.90
5086;DHT22;4715;51.660;7.082;2022-09-17T07:16:57;11.60;99.90
5086;DHT22;4715;51.660;7.082;2022-09-17T07:19:19;11.70;99.90
5086;DHT22;4715;51.660;7.082;2022-09-17T07:21:41;11.70;99.90
5086;DHT22;4715;51.660;7.082;2022-09-17T07:24:05;11.70;99.90
5086;DHT22;4715;51.660;7.082;2022-09-17T07:26:27;11.80;99.90
5086;DHT22;4715;51.660;7.082;2022-09-17T07:28:50;11.80;99.90
5086;DHT22;4715;51.660;7.082;2022-09-17T07:31:15;11.90;99.90
5086;DHT22;4715;51.660;7.082;2022-09-17T07:33:38;12.00;99.90
5086;DHT22;4715;51.660;7.082;2022-09-17T07:36:02;12.20;99.90
5086;DHT22;4715;51.660;7.082;2022-09-17T07:38:27;12.30;99.90
5086;DHT22;4715;51.660;7.082;2022-09-17T07:40:55;12.30;99.90
5086;DHT22;4715;51.660;7.082;2022-09-17T07:43:17;12.40;99.90
5086;DHT22;4715;51.660;7.082;2022-09-17T07:45:39;12.50;99.90
5086;DHT22;4715;51.660;7.082;2022-09-17T07:48:01;12.50;99.90
5086;DHT22;4715;51.660;7.082;2022-09-17T07:50:23;12.60;99.90
5086;DHT22;4715;51.660;7.082;2022-09-17T07:52:45;12.70;99.90
5086;DHT22;4715;51.660;7.082;2022-09-17T07:55:08;12.80;99.90
5086;DHT22;4715;51.660;7.082;2022-09-17T07:57:32;12.90;99.90
5086;DHT22;4715;51.660;7.082;2022-09-17T07:59:54;13.00;99.90
5086;DHT22;4715;51.660;7.082;2022-09-17T08:02:16;13.10;99.90
5086;DHT22;4715;51.660;7.082;2022-09-17T08:04:41;13.20;99.90
5086;DHT22;4715;51.660;7.082;2022-09-17T08:07:04;13.20;99.90
5086;DHT22;4715;51.660;7.082;2022-09-17T08:09:26;13.20;99.90
5086;DHT22;4715;51.660;7.082;2022-09-17T08:11:48;13.30;99.90
5086;DHT22;4715;51.660;7.082;2022-09-17T08:14:13;13.40;99.90
5086;DHT22;4715;51.660;7.082;2022-09-17T08:16:36;13.40;99.90
5086;DHT22;4715;51.660;7.082;2022-09-17T08:19:01;13.40;99.90
5086;DHT22;4715;51.660;7.082;2022-09-17T08:21:24;13.40;99.90
5086;DHT22;4715;51.660;7.082;2022-09-17T08:23:46;13.50;99.90
5086;DHT22;4715;51.660;7.082;2022-09-17T08:26:12;13.50;99.90
5086;DHT22;4715;51.660;7.082;2022-09-17T08:28:34;13.60;99.90
5086;DHT22;4715;51.660;7.082;2022-09-17T08:31:01;13.70;99.90
5086;DHT22;4715;51.660;7.082;2022-09-17T08:33:23;13.80;99.90
5086;DHT22;4715;51.660;7.082;2022-09-17T08:35:50;13.90;99.90
5086;DHT22;4715;51.660;7.082;2022-09-17T08:38:12;14.00;99.90
5086;DHT22;4715;51.660;7.082;2022-09-17T08:40:41;14.10;99.90
5086;DHT22;4715;51.660;7.082;2022-09-17T08:43:10;14.10;99.90
5086;DHT22;4715;51.660;7.082;2022-09-17T08:45:37;14.20;99.90
5086;DHT22;4715;51.660;7.082;2022-09-17T08:48:02;14.10;99.90
5086;DHT22;4715;51.660;7.082;2022-09-17T08:50:29;14.10;99.90
5086;DHT22;4715;51.660;7.082;2022-09-17T08:53:02;14.20;99.90
5086;DHT22;4715;51.660;7.082;2022-09-17T08:55:35;14.30;99.90
5086;DHT22;4715;51.660;7.082;2022-09-17T09:00:54;14.30;99.90
5086;DHT22;4715;51.660;7.082;2022-09-17T09:03:31;14.20;99.90
5086;DHT22;4715;51.660;7.082;2022-09-17T09:05:59;14.30;99.90
5086;DHT22;4715;51.660;7.082;2022-09-17T09:08:25;14.30;99.90
5086;DHT22;4715;51.660;7.082;2022-09-17T09:10:51;14.50;99.90
5086;DHT22;4715;51.660;7.082;2022-09-17T09:13:17;14.60;99.90
5086;DHT22;4715;51.660;7.082;2022-09-17T09:15:43;14.70;99.90
5086;DHT22;4715;51.660;7.082;2022-09-17T09:18:15;14.90;99.90
5086;DHT22;4715;51.660;7.082;2022-09-17T09:20:44;14.90;99.90
5086;DHT22;4715;51.660;7.082;2022-09-17T09:23:16;14.90;99.90
5086;DHT22;4715;51.660;7.082;2022-09-17T09:25:45;14.90;99.90
5086;DHT22;4715;51.660;7.082;2022-09-17T09:28:29;15.00;99.90
5086;DHT22;4715;51.660;7.082;2022-09-17T09:31:01;15.10;99.90
5086;DHT22;4715;51.660;7.082;2022-09-17T09:33:29;15.20;99.90
5086;DHT22;4715;51.660;7.082;2022-09-17T09:35:53;15.20;99.90
5086;DHT22;4715;51.660;7.082;2022-09-17T09:38:28;15.30;99.90
5086;DHT22;4715;51.660;7.082;2022-09-17T09:40:55;15.30;99.90
5086;DHT22;4715;51.660;7.082;2022-09-17T09:43:21;15.30;99.90
5086;DHT22;4715;51.660;7.082;2022-09-17T09:48:57;15.40;99.90
5086;DHT22;4715;51.660;7.082;2022-09-17T09:51:33;15.40;99.90
5086;DHT22;4715;51.660;7.082;2022-09-17T09:54:10;15.50;99.90
5086;DHT22;4715;51.660;7.082;2022-09-17T09:56:48;15.50;99.90
5086;DHT22;4715;51.660;7.082;2022-09-17T09:59:14;15.50;99.90
5086;DHT22;4715;51.660;7.082;2022-09-17T10:01:40;15.50;99.90
5086;DHT22;4715;51.660;7.082;2022-09-17T10:04:15;15.50;99.90
5086;DHT22;4715;51.660;7.082;2022-09-17T10:06:39;15.50;99.90
5086;DHT22;4715;51.660;7.082;2022-09-17T10:09:12;15.50;99.90
5086;DHT22;4715;51.660;7.082;2022-09-17T10:11:34;15.70;99.90
5086;DHT22;4715;51.660;7.082;2022-09-17T10:14:14;15.80;99.90
5086;DHT22;4715;51.660;7.082;2022-09-17T10:16:36;16.00;99.90
5086;DHT22;4715;51.660;7.082;2022-09-17T10:19:11;16.20;99.90
5086;DHT22;4715;51.660;7.082;2022-09-17T10:21:35;16.40;99.90
5086;DHT22;4715;51.660;7.082;2022-09-17T10:24:01;16.40;99.90
5086;DHT22;4715;51.660;7.082;2022-09-17T10:26:27;16.30;99.90
5086;DHT22;4715;51.660;7.082;2022-09-17T10:28:50;15.90;99.90
5086;DHT22;4715;51.660;7.082;2022-09-17T10:31:13;15.70;99.90
5086;DHT22;4715;51.660;7.082;2022-09-17T10:33:38;15.60;99.90
5086;DHT22;4715;51.660;7.082;2022-09-17T10:36:04;15.50;99.90
5086;DHT22;4715;51.660;7.082;2022-09-17T10:38:33;15.50;99.90
5086;DHT22;4715;51.660;7.082;2022-09-17T10:41:27;15.40;99.90
5086;DHT22;4715;51.660;7.082;2022-09-17T10:43:49;15.50;99.90
5086;DHT22;4715;51.660;7.082;2022-09-17T10:46:14;15.50;99.90
5086;DHT22;4715;51.660;7.082;2022-09-17T10:48:42;15.70;99.90
5086;DHT22;4715;51.660;7.082;2022-09-17T10:51:07;15.90;99.90
5086;DHT22;4715;51.660;7.082;2022-09-17T10:53:30;16.00;99.90
5086;DHT22;4715;51.660;7.082;2022-09-17T10:56:00;16.00;99.90
5086;DHT22;4715;51.660;7.082;2022-09-17T10:58:34;16.00;99.90
5086;DHT22;4715;51.660;7.082;2022-09-17T11:01:09;16.10;99.90
5086;DHT22;4715;51.660;7.082;2022-09-17T11:04:01;16.20;99.90
5086;DHT22;4715;51.660;7.082;2022-09-17T11:09:28;16.50;99.90
5086;DHT22;4715;51.660;7.082;2022-09-17T11:12:02;16.40;99.90
5086;DHT22;4715;51.660;7.082;2022-09-17T11:14:46;16.30;99.90
5086;DHT22;4715;51.660;7.082;2022-09-17T11:17:17;16.10;99.90
5086;DHT22;4715;51.660;7.082;2022-09-17T11:19:56;15.90;99.90
5086;DHT22;4715;51.660;7.082;2022-09-17T11:22:24;15.70;99.90
5086;DHT22;4715;51.660;7.082;2022-09-17T11:25:20;15.70;99.90
5086;DHT22;4715;51.660;7.082;2022-09-17T11:28:00;15.70;99.90
5086;DHT22;4715;51.660;7.082;2022-09-17T11:30:32;15.60;99.90
5086;DHT22;4715;51.660;7.082;2022-09-17T11:35:58;15.40;99.90
5086;DHT22;4715;51.660;7.082;2022-09-17T11:38:23;15.40;99.90
5086;DHT22;4715;51.660;7.082;2022-09-17T11:41:00;15.50;99.90
5086;DHT22;4715;51.660;7.082;2022-09-17T11:43:26;15.60;99.90
5086;DHT22;4715;51.660;7.082;2022-09-17T11:45:57;15.60;99.90
5086;DHT22;4715;51.660;7.082;2022-09-17T11:48:23;15.70;99.90
5086;DHT22;4715;51.660;7.082;2022-09-17T11:50:56;15.80;99.90
5086;DHT22;4715;51.660;7.082;2022-09-17T11:53:28;15.80;99.90
5086;DHT22;4715;51.660;7.082;2022-09-17T11:55:54;15.60;99.90
5086;DHT22;4715;51.660;7.082;2022-09-17T11:58:27;15.40;99.90
5086;DHT22;4715;51.660;7.082;2022-09-17T12:01:00;15.10;99.90
5086;DHT22;4715;51.660;7.082;2022-09-17T12:03:28;14.70;99.90
5086;DHT22;4715;51.660;7.082;2022-09-17T12:05:56;14.30;99.90
5086;DHT22;4715;51.660;7.082;2022-09-17T12:08:24;14.00;99.90
5086;DHT22;4715;51.660;7.082;2022-09-17T12:10:53;13.90;99.90
5086;DHT22;4715;51.660;7.082;2022-09-17T12:13:29;13.70;99.90
5086;DHT22;4715;51.660;7.082;2022-09-17T12:16:03;13.70;99.90
5086;DHT22;4715;51.660;7.082;2022-09-17T12:18:31;13.80;99.90
5086;DHT22;4715;51.660;7.082;2022-09-17T12:20:58;14.00;99.90
5086;DHT22;4715;51.660;7.082;2022-09-17T12:23:30;14.20;99.90
5086;DHT22;4715;51.660;7.082;2022-09-17T12:26:00;14.50;99.90
5086;DHT22;4715;51.660;7.082;2022-09-17T12:28:30;14.60;99.90
5086;DHT22;4715;51.660;7.082;2022-09-17T12:31:00;14.70;99.90
5086;DHT22;4715;51.660;7.082;2022-09-17T12:33:31;14.90;99.90
5086;DHT22;4715;51.660;7.082;2022-09-17T12:36:08;15.20;99.90
5086;DHT22;4715;51.660;7.082;2022-09-17T12:39:14;15.50;99.90
5086;DHT22;4715;51.660;7.082;2022-09-17T12:41:52;15.80;99.90
5086;DHT22;4715;51.660;7.082;2022-09-17T12:44:44;16.10;99.90
5086;DHT22;4715;51.660;7.082;2022-09-17T12:47:24;16.20;99.90
5086;DHT22;4715;51.660;7.082;2022-09-17T12:50:09;16.10;99.90
5086;DHT22;4715;51.660;7.082;2022-09-17T12:52:44;15.70;99.90
5086;DHT22;4715;51.660;7.082;2022-09-17T12:55:20;15.50;99.90
5086;DHT22;4715;51.660;7.082;2022-09-17T12:57:53;15.20;99.90
5086;DHT22;4715;51.660;7.082;2022-09-17T13:00:17;15.10;99.90
5086;DHT22;4715;51.660;7.082;2022-09-17T13:02:45;15.20;99.90
5086;DHT22;4715;51.660;7.082;2022-09-17T13:05:44;15.40;99.90
5086;DHT22;4715;51.660;7.082;2022-09-17T13:11:24;15.70;99.90
5086;DHT22;4715;51.660;7.082;2022-09-17T13:13:56;15.90;99.90
5086;DHT22;4715;51.660;7.082;2022-09-17T13:16:22;16.00;99.90
5086;DHT22;4715;51.660;7.082;2022-09-17T13:18:53;15.80;99.90
5086;DHT22;4715;51.660;7.082;2022-09-17T13:21:24;15.60;99.90
5086;DHT22;4715;51.660;7.082;2022-09-17T13:23:52;15.40;99.90
5086;DHT22;4715;51.660;7.082;2022-09-17T13:26:17;15.20;99.90
5086;DHT22;4715;51.660;7.082;2022-09-17T13:28:44;15.10;99.90
5086;DHT22;4715;51.660;7.082;2022-09-17T13:31:07;15.00;99.90
5086;DHT22;4715;51.660;7.082;2022-09-17T13:33:52;15.10;99.90
5086;DHT22;4715;51.660;7.082;2022-09-17T13:36:35;15.50;99.90
5086;DHT22;4715;51.660;7.082;2022-09-17T13:38:59;15.90;99.90
5086;DHT22;4715;51.660;7.082;2022-09-17T13:41:27;16.00;99.90
5086;DHT22;4715;51.660;7.082;2022-09-17T13:44:01;15.90;99.90
5086;DHT22;4715;51.660;7.082;2022-09-17T13:46:27;15.90;99.90
5086;DHT22;4715;51.660;7.082;2022-09-17T13:48:56;15.90;99.90
5086;DHT22;4715;51.660;7.082;2022-09-17T13:51:53;16.10;99.90
5086;DHT22;4715;51.660;7.082;2022-09-17T13:54:21;16.30;99.90
5086;DHT22;4715;51.660;7.082;2022-09-17T13:56:46;16.20;99.90
5086;DHT22;4715;51.660;7.082;2022-09-17T13:59:11;15.90;99.90
5086;DHT22;4715;51.660;7.082;2022-09-17T14:01:55;15.50;99.90
5086;DHT22;4715;51.660;7.082;2022-09-17T14:07:31;14.70;99.90
5086;DHT22;4715;51.660;7.082;2022-09-17T14:09:55;14.40;99.90
5086;DHT22;4715;51.660;7.082;2022-09-17T14:15:54;14.20;99.90
5086;DHT22;4715;51.660;7.082;2022-09-17T14:18:35;14.60;99.90
5086;DHT22;4715;51.660;7.082;2022-09-17T14:21:05;15.40;99.90
5086;DHT22;4715;51.660;7.082;2022-09-17T14:23:30;16.20;99.90
5086;DHT22;4715;51.660;7.082;2022-09-17T14:25:53;16.70;99.90
5086;DHT22;4715;51.660;7.082;2022-09-17T14:28:25;17.00;99.90
5086;DHT22;4715;51.660;7.082;2022-09-17T14:30:51;17.10;99.90
5086;DHT22;4715;51.660;7.082;2022-09-17T14:33:24;16.80;99.90
5086;DHT22;4715;51.660;7.082;2022-09-17T14:36:07;16.50;99.90
5086;DHT22;4715;51.660;7.082;2022-09-17T14:38:37;16.10;99.90
5086;DHT22;4715;51.660;7.082;2022-09-17T14:41:06;15.80;99.90
5086;DHT22;4715;51.660;7.082;2022-09-17T14:43:41;15.70;99.90
5086;DHT22;4715;51.660;7.082;2022-09-17T14:46:09;15.60;99.90
5086;DHT22;4715;51.660;7.082;2022-09-17T14:48:36;15.60;99.90
5086;DHT22;4715;51.660;7.082;2022-09-17T14:51:21;15.70;99.90
5086;DHT22;4715;51.660;7.082;2022-09-17T14:53:48;16.00;99.90
5086;DHT22;4715;51.660;7.082;2022-09-17T14:56:15;16.20;99.90
5086;DHT22;4715;51.660;7.082;2022-09-17T14:58:42;16.30;99.90
5086;DHT22;4715;51.660;7.082;2022-09-17T15:01:20;16.30;99.90
5086;DHT22;4715;51.660;7.082;2022-09-17T15:03:43;16.40;99.90
5086;DHT22;4715;51.660;7.082;2022-09-17T15:06:19;16.50;99.90
5086;DHT22;4715;51.660;7.082;2022-09-17T15:08:46;16.50;99.90
5086;DHT22;4715;51.660;7.082;2022-09-17T15:11:10;16.40;99.90
5086;DHT22;4715;51.660;7.082;2022-09-17T15:13:36;16.40;99.90
5086;DHT22;4715;51.660;7.082;2022-09-17T15:16:04;16.40;99.90
5086;DHT22;4715;51.660;7.082;2022-09-17T15:18:35;16.30;99.90
5086;DHT22;4715;51.660;7.082;2022-09-17T15:20:58;16.20;99.90
5086;DHT22;4715;51.660;7.082;2022-09-17T15:23:25;16.10;99.90
5086;DHT22;4715;51.660;7.082;2022-09-17T15:25:53;15.90;99.90
5086;DHT22;4715;51.660;7.082;2022-09-17T15:28:26;15.70;99.90
5086;DHT22;4715;51.660;7.082;2022-09-17T15:30:49;15.50;99.90
5086;DHT22;4715;51.660;7.082;2022-09-17T15:33:13;15.30;99.90
5086;DHT22;4715;51.660;7.082;2022-09-17T15:35:40;15.20;99.90
5086;DHT22;4715;51.660;7.082;2022-09-17T15:38:19;15.10;99.90
5086;DHT22;4715;51.660;7.082;2022-09-17T15:40:43;15.10;99.90
5086;DHT22;4715;51.660;7.082;2022-09-17T15:43:15;15.20;99.90
5086;DHT22;4715;51.660;7.082;2022-09-17T15:45:42;15.30;99.90
5086;DHT22;4715;51.660;7.082;2022-09-17T15:48:04;15.30;99.90
5086;DHT22;4715;51.660;7.082;2022-09-17T15:50:28;15.40;99.90
5086;DHT22;4715;51.660;7.082;2022-09-17T15:53:12;15.50;99.90
5086;DHT22;4715;51.660;7.082;2022-09-17T15:55:36;15.60;99.90
5086;DHT22;4715;51.660;7.082;2022-09-17T15:58:03;15.60;99.90
5086;DHT22;4715;51.660;7.082;2022-09-17T16:00:27;15.70;99.90
5086;DHT22;4715;51.660;7.082;2022-09-17T16:02:49;15.70;99.90
5086;DHT22;4715;51.660;7.082;2022-09-17T16:08:21;15.60;99.90
5086;DHT22;4715;51.660;7.082;2022-09-17T16:10:43;15.60;99.90
5086;DHT22;4715;51.660;7.082;2022-09-17T16:13:06;15.30;99.90
5086;DHT22;4715;51.660;7.082;2022-09-17T16:15:33;15.20;99.90
5086;DHT22;4715;51.660;7.082;2022-09-17T16:17:54;15.00;99.90
5086;DHT22;4715;51.660;7.082;2022-09-17T16:20:18;14.90;99.90
5086;DHT22;4715;51.660;7.082;2022-09-17T16:22:49;14.90;99.90
5086;DHT22;4715;51.660;7.082;2022-09-17T16:25:11;14.70;99.90
5086;DHT22;4715;51.660;7.082;2022-09-17T16:27:42;14.60;99.90
5086;DHT22;4715;51.660;7.082;2022-09-17T16:30:07;14.40;99.90
5086;DHT22;4715;51.660;7.082;2022-09-17T16:32:31;14.20;99.90